sensor_id;sensor_type;location;lat;lon;timestamp;P1;durP1;ratioP1;P2;durP2;ratioP2
2320;SDS011;15376;48.540;9.268;2023-12-14T00:01:51;6.53;;;4.40;;
2320;SDS011;15376;48.540;9.268;2023-12-14T00:04:17;6.60;;;4.33;;
2320;SDS011;15376;48.540;9.268;2023-12-14T00:06:42;5.17;;;3.77;;
2320;SDS011;15376;48.540;9.268;2023-12-14T00:09:08;7.43;;;5.20;;
2320;SDS011;15376;48.540;9.268;2023-12-14T00:11:37;8.07;;;5.50;;
2320;SDS011;15376;48.540;9.268;2023-12-14T00:14:03;4.40;;;4.00;;
2320;SDS011;15376;48.540;9.268;2023-12-14T00:16:28;4.20;;;3.80;;
2320;SDS011;15376;48.540;9.268;2023-12-14T00:18:54;3.57;;;3.27;;
2320;SDS011;15376;48.540;9.268;2023-12-14T00:21:19;4.43;;;4.03;;
2320;SDS011;15376;48.540;9.268;2023-12-14T00:23:44;4.03;;;3.73;;
2320;SDS011;15376;48.540;9.268;2023-12-14T00:26:10;4.67;;;4.20;;
2320;SDS011;15376;48.540;9.268;2023-12-14T00:28:35;4.10;;;3.30;;
2320;SDS011;15376;48.540;9.268;2023-12-14T00:31:00;3.97;;;3.60;;
2320;SDS011;15376;48.540;9.268;2023-12-14T00:33:26;5.50;;;3.70;;
2320;SDS011;15376;48.540;9.268;2023-12-14T00:35:51;3.80;;;3.50;;
2320;SDS011;15376;48.540;9.268;2023-12-14T00:38:16;3.40;;;3.20;;
2320;SDS011;15376;48.540;9.268;2023-12-14T00:40:42;4.00;;;3.60;;
2320;SDS011;15376;48.540;9.268;2023-12-14T00:43:07;3.37;;;3.07;;
2320;SDS011;15376;48.540;9.268;2023-12-14T00:45:32;3.77;;;3.37;;
2320;SDS011;15376;48.540;9.268;2023-12-14T00:47:58;2.67;;;2.47;;
2320;SDS011;15376;48.540;9.268;2023-12-14T00:50:23;4.10;;;2.87;;
2320;SDS011;15376;48.540;9.268;2023-12-14T00:52:48;3.20;;;3.00;;
2320;SDS011;15376;48.540;9.268;2023-12-14T00:55:14;3.40;;;3.10;;
2320;SDS011;15376;48.540;9.268;2023-12-14T00:57:39;3.20;;;2.90;;
2320;SDS011;15376;48.540;9.268;2023-12-14T01:00:05;5.63;;;3.50;;
2320;SDS011;15376;48.540;9.268;2023-12-14T01:02:30;4.03;;;3.60;;
2320;SDS011;15376;48.540;9.268;2023-12-14T01:04:56;5.73;;;4.17;;
2320;SDS011;15376;48.540;9.268;2023-12-14T01:07:21;3.93;;;3.47;;
2320;SDS011;15376;48.540;9.268;2023-12-14T01:09:46;3.67;;;3.27;;
2320;SDS011;15376;48.540;9.268;2023-12-14T01:12:12;4.57;;;4.17;;
2320;SDS011;15376;48.540;9.268;2023-12-14T01:14:37;4.00;;;3.70;;
2320;SDS011;15376;48.540;9.268;2023-12-14T01:17:03;4.53;;;3.90;;
2320;SDS011;15376;48.540;9.268;2023-12-14T01:19:28;3.70;;;3.40;;
2320;SDS011;15376;48.540;9.268;2023-12-14T01:21:53;5.30;;;4.80;;
2320;SDS011;15376;48.540;9.268;2023-12-14T01:24:20;4.20;;;3.80;;
2320;SDS011;15376;48.540;9.268;2023-12-14T01:26:45;4.07;;;3.77;;
2320;SDS011;15376;48.540;9.268;2023-12-14T01:29:11;4.90;;;4.50;;
2320;SDS011;15376;48.540;9.268;2023-12-14T01:31:36;4.50;;;4.10;;
2320;SDS011;15376;48.540;9.268;2023-12-14T01:34:01;4.70;;;4.00;;
2320;SDS011;15376;48.540;9.268;2023-12-14T01:36:27;4.70;;;4.30;;
2320;SDS011;15376;48.540;9.268;2023-12-14T01:38:52;4.87;;;4.43;;
2320;SDS011;15376;48.540;9.268;2023-12-14T01:41:18;4.90;;;4.40;;
2320;SDS011;15376;48.540;9.268;2023-12-14T01:43:44;4.67;;;4.17;;
2320;SDS011;15376;48.540;9.268;2023-12-14T01:46:10;4.83;;;4.40;;
2320;SDS011;15376;48.540;9.268;2023-12-14T01:48:35;5.13;;;4.63;;
2320;SDS011;15376;48.540;9.268;2023-12-14T01:51:01;6.13;;;5.53;;
2320;SDS011;15376;48.540;9.268;2023-12-14T01:53:26;6.23;;;4.80;;
2320;SDS011;15376;48.540;9.268;2023-12-14T01:55:52;5.10;;;4.60;;
2320;SDS011;15376;48.540;9.268;2023-12-14T01:58:17;5.00;;;4.60;;
2320;SDS011;15376;48.540;9.268;2023-12-14T02:03:08;5.70;;;5.20;;
2320;SDS011;15376;48.540;9.268;2023-12-14T02:05:33;5.10;;;4.70;;
2320;SDS011;15376;48.540;9.268;2023-12-14T02:07:59;4.70;;;4.20;;
2320;SDS011;15376;48.540;9.268;2023-12-14T02:10:24;5.70;;;5.20;;
2320;SDS011;15376;48.540;9.268;2023-12-14T02:12:49;5.00;;;4.60;;
2320;SDS011;15376;48.540;9.268;2023-12-14T02:15:15;5.10;;;4.70;;
2320;SDS011;15376;48.540;9.268;2023-12-14T02:17:40;5.87;;;5.33;;
2320;SDS011;15376;48.540;9.268;2023-12-14T02:20:05;8.37;;;5.20;;
2320;SDS011;15376;48.540;9.268;2023-12-14T02:22:50;6.97;;;5.27;;
2320;SDS011;15376;48.540;9.268;2023-12-14T02:25:16;4.80;;;4.17;;
2320;SDS011;15376;48.540;9.268;2023-12-14T02:27:42;5.30;;;4.90;;
2320;SDS011;15376;48.540;9.268;2023-12-14T02:30:08;5.67;;;5.13;;
2320;SDS011;15376;48.540;9.268;2023-12-14T02:32:34;6.63;;;5.93;;
2320;SDS011;15376;48.540;9.268;2023-12-14T02:34:59;6.10;;;5.50;;
2320;SDS011;15376;48.540;9.268;2023-12-14T02:37:25;8.70;;;4.70;;
2320;SDS011;15376;48.540;9.268;2023-12-14T02:39:50;6.37;;;4.60;;
2320;SDS011;15376;48.540;9.268;2023-12-14T02:42:16;4.67;;;4.27;;
2320;SDS011;15376;48.540;9.268;2023-12-14T02:44:41;7.10;;;4.40;;
2320;SDS011;15376;48.540;9.268;2023-12-14T02:47:06;6.17;;;5.57;;
2320;SDS011;15376;48.540;9.268;2023-12-14T02:49:32;5.13;;;4.63;;
2320;SDS011;15376;48.540;9.268;2023-12-14T02:51:58;4.90;;;4.40;;
2320;SDS011;15376;48.540;9.268;2023-12-14T02:54:23;5.30;;;4.40;;
2320;SDS011;15376;48.540;9.268;2023-12-14T02:56:49;8.43;;;5.00;;
2320;SDS011;15376;48.540;9.268;2023-12-14T02:59:14;5.80;;;5.20;;
2320;SDS011;15376;48.540;9.268;2023-12-14T03:01:39;5.73;;;5.23;;
2320;SDS011;15376;48.540;9.268;2023-12-14T03:04:06;5.47;;;4.97;;
2320;SDS011;15376;48.540;9.268;2023-12-14T03:06:31;8.37;;;5.70;;
2320;SDS011;15376;48.540;9.268;2023-12-14T03:08:57;6.70;;;6.10;;
2320;SDS011;15376;48.540;9.268;2023-12-14T03:11:22;5.37;;;4.97;;
2320;SDS011;15376;48.540;9.268;2023-12-14T03:13:48;8.13;;;5.27;;
2320;SDS011;15376;48.540;9.268;2023-12-14T03:16:14;6.50;;;5.50;;
2320;SDS011;15376;48.540;9.268;2023-12-14T03:18:39;8.10;;;5.60;;
2320;SDS011;15376;48.540;9.268;2023-12-14T03:21:04;5.67;;;5.17;;
2320;SDS011;15376;48.540;9.268;2023-12-14T03:23:30;5.10;;;4.67;;
2320;SDS011;15376;48.540;9.268;2023-12-14T03:25:55;8.07;;;5.27;;
2320;SDS011;15376;48.540;9.268;2023-12-14T03:28:20;6.70;;;5.43;;
2320;SDS011;15376;48.540;9.268;2023-12-14T03:30:46;5.60;;;4.90;;
2320;SDS011;15376;48.540;9.268;2023-12-14T03:33:11;10.00;;;5.20;;
2320;SDS011;15376;48.540;9.268;2023-12-14T03:35:37;6.13;;;5.20;;
2320;SDS011;15376;48.540;9.268;2023-12-14T03:38:02;9.43;;;6.00;;
2320;SDS011;15376;48.540;9.268;2023-12-14T03:40:27;5.43;;;4.90;;
2320;SDS011;15376;48.540;9.268;2023-12-14T03:42:53;5.50;;;5.00;;
2320;SDS011;15376;48.540;9.268;2023-12-14T03:45:18;6.63;;;5.07;;
2320;SDS011;15376;48.540;9.268;2023-12-14T03:47:44;7.73;;;5.33;;
2320;SDS011;15376;48.540;9.268;2023-12-14T03:50:13;5.83;;;5.33;;
2320;SDS011;15376;48.540;9.268;2023-12-14T03:52:38;7.07;;;5.20;;
2320;SDS011;15376;48.540;9.268;2023-12-14T03:55:03;5.63;;;4.93;;
2320;SDS011;15376;48.540;9.268;2023-12-14T03:57:29;5.40;;;4.90;;
2320;SDS011;15376;48.540;9.268;2023-12-14T03:59:55;4.97;;;4.50;;
2320;SDS011;15376;48.540;9.268;2023-12-14T04:02:21;8.13;;;4.93;;
2320;SDS011;15376;48.540;9.268;2023-12-14T04:04:47;5.67;;;4.40;;
2320;SDS011;15376;48.540;9.268;2023-12-14T04:07:13;7.97;;;5.57;;
2320;SDS011;15376;48.540;9.268;2023-12-14T04:09:38;4.20;;;3.80;;
2320;SDS011;15376;48.540;9.268;2023-12-14T04:12:03;8.50;;;5.00;;
2320;SDS011;15376;48.540;9.268;2023-12-14T04:14:29;5.50;;;5.00;;
2320;SDS011;15376;48.540;9.268;2023-12-14T04:16:55;6.10;;;5.60;;
2320;SDS011;15376;48.540;9.268;2023-12-14T04:19:20;6.30;;;5.40;;
2320;SDS011;15376;48.540;9.268;2023-12-14T04:21:47;8.60;;;6.60;;
2320;SDS011;15376;48.540;9.268;2023-12-14T04:24:12;6.40;;;5.80;;
2320;SDS011;15376;48.540;9.268;2023-12-14T04:26:38;6.27;;;5.77;;
2320;SDS011;15376;48.540;9.268;2023-12-14T04:29:03;5.60;;;5.20;;
2320;SDS011;15376;48.540;9.268;2023-12-14T04:31:29;6.10;;;5.43;;
2320;SDS011;15376;48.540;9.268;2023-12-14T04:33:55;5.37;;;4.87;;
2320;SDS011;15376;48.540;9.268;2023-12-14T04:36:20;4.93;;;4.57;;
2320;SDS011;15376;48.540;9.268;2023-12-14T04:38:46;4.53;;;4.23;;
2320;SDS011;15376;48.540;9.268;2023-12-14T04:41:12;5.30;;;4.17;;
2320;SDS011;15376;48.540;9.268;2023-12-14T04:43:37;6.50;;;5.57;;
2320;SDS011;15376;48.540;9.268;2023-12-14T04:46:03;4.83;;;4.43;;
2320;SDS011;15376;48.540;9.268;2023-12-14T04:48:28;5.00;;;4.70;;
2320;SDS011;15376;48.540;9.268;2023-12-14T04:50:54;5.93;;;5.33;;
2320;SDS011;15376;48.540;9.268;2023-12-14T04:53:19;6.50;;;5.30;;
2320;SDS011;15376;48.540;9.268;2023-12-14T04:55:44;8.50;;;5.03;;
2320;SDS011;15376;48.540;9.268;2023-12-14T04:58:10;8.93;;;5.00;;
2320;SDS011;15376;48.540;9.268;2023-12-14T05:00:35;5.60;;;4.90;;
2320;SDS011;15376;48.540;9.268;2023-12-14T05:03:00;5.10;;;4.70;;
2320;SDS011;15376;48.540;9.268;2023-12-14T05:05:26;9.03;;;5.43;;
2320;SDS011;15376;48.540;9.268;2023-12-14T05:07:51;6.50;;;5.53;;
2320;SDS011;15376;48.540;9.268;2023-12-14T05:10:16;6.67;;;5.30;;
2320;SDS011;15376;48.540;9.268;2023-12-14T05:12:42;6.90;;;6.20;;
2320;SDS011;15376;48.540;9.268;2023-12-14T05:15:07;8.97;;;6.00;;
2320;SDS011;15376;48.540;9.268;2023-12-14T05:17:33;8.13;;;6.20;;
2320;SDS011;15376;48.540;9.268;2023-12-14T05:20:01;10.00;;;6.53;;
2320;SDS011;15376;48.540;9.268;2023-12-14T05:22:27;6.60;;;5.97;;
2320;SDS011;15376;48.540;9.268;2023-12-14T05:24:53;13.27;;;6.90;;
2320;SDS011;15376;48.540;9.268;2023-12-14T05:27:18;10.73;;;7.60;;
2320;SDS011;15376;48.540;9.268;2023-12-14T05:29:43;8.97;;;7.73;;
2320;SDS011;15376;48.540;9.268;2023-12-14T05:32:09;10.10;;;6.97;;
2320;SDS011;15376;48.540;9.268;2023-12-14T05:34:34;7.20;;;6.37;;
2320;SDS011;15376;48.540;9.268;2023-12-14T05:36:59;7.90;;;6.77;;
2320;SDS011;15376;48.540;9.268;2023-12-14T05:39:24;9.13;;;7.20;;
2320;SDS011;15376;48.540;9.268;2023-12-14T05:41:50;11.43;;;6.90;;
2320;SDS011;15376;48.540;9.268;2023-12-14T05:44:15;9.03;;;6.83;;
2320;SDS011;15376;48.540;9.268;2023-12-14T05:46:40;7.23;;;6.37;;
2320;SDS011;15376;48.540;9.268;2023-12-14T05:49:06;9.10;;;7.00;;
2320;SDS011;15376;48.540;9.268;2023-12-14T05:51:32;8.93;;;7.60;;
2320;SDS011;15376;48.540;9.268;2023-12-14T05:53:58;11.20;;;8.60;;
2320;SDS011;15376;48.540;9.268;2023-12-14T05:56:24;13.20;;;8.40;;
2320;SDS011;15376;48.540;9.268;2023-12-14T05:58:50;12.33;;;7.83;;
2320;SDS011;15376;48.540;9.268;2023-12-14T06:01:16;10.23;;;7.97;;
2320;SDS011;15376;48.540;9.268;2023-12-14T06:03:43;9.03;;;7.73;;
2320;SDS011;15376;48.540;9.268;2023-12-14T06:06:09;14.13;;;8.93;;
2320;SDS011;15376;48.540;9.268;2023-12-14T06:08:34;8.53;;;6.97;;
2320;SDS011;15376;48.540;9.268;2023-12-14T06:11:00;10.83;;;8.70;;
2320;SDS011;15376;48.540;9.268;2023-12-14T06:13:25;8.90;;;7.80;;
2320;SDS011;15376;48.540;9.268;2023-12-14T06:15:50;8.93;;;8.03;;
2320;SDS011;15376;48.540;9.268;2023-12-14T06:18:16;11.00;;;8.10;;
2320;SDS011;15376;48.540;9.268;2023-12-14T06:20:41;8.93;;;8.03;;
2320;SDS011;15376;48.540;9.268;2023-12-14T06:23:07;10.43;;;8.57;;
2320;SDS011;15376;48.540;9.268;2023-12-14T06:25:32;10.80;;;9.40;;
2320;SDS011;15376;48.540;9.268;2023-12-14T06:27:57;12.60;;;9.93;;
2320;SDS011;15376;48.540;9.268;2023-12-14T06:30:23;9.97;;;8.40;;
2320;SDS011;15376;48.540;9.268;2023-12-14T06:32:48;10.47;;;9.33;;
2320;SDS011;15376;48.540;9.268;2023-12-14T06:35:14;12.63;;;9.03;;
2320;SDS011;15376;48.540;9.268;2023-12-14T06:37:40;10.80;;;9.50;;
2320;SDS011;15376;48.540;9.268;2023-12-14T06:40:07;10.73;;;8.70;;
2320;SDS011;15376;48.540;9.268;2023-12-14T06:42:33;10.67;;;9.03;;
2320;SDS011;15376;48.540;9.268;2023-12-14T06:44:59;10.93;;;9.63;;
2320;SDS011;15376;48.540;9.268;2023-12-14T06:47:25;9.13;;;8.20;;
2320;SDS011;15376;48.540;9.268;2023-12-14T06:49:50;12.40;;;8.30;;
2320;SDS011;15376;48.540;9.268;2023-12-14T06:52:16;13.07;;;9.20;;
2320;SDS011;15376;48.540;9.268;2023-12-14T06:54:41;9.30;;;8.33;;
2320;SDS011;15376;48.540;9.268;2023-12-14T06:57:06;7.83;;;7.13;;
2320;SDS011;15376;48.540;9.268;2023-12-14T06:59:32;8.93;;;7.97;;
2320;SDS011;15376;48.540;9.268;2023-12-14T07:01:57;9.73;;;7.63;;
2320;SDS011;15376;48.540;9.268;2023-12-14T07:04:22;9.97;;;7.23;;
2320;SDS011;15376;48.540;9.268;2023-12-14T07:06:51;8.90;;;7.60;;
2320;SDS011;15376;48.540;9.268;2023-12-14T07:09:17;8.73;;;7.90;;
2320;SDS011;15376;48.540;9.268;2023-12-14T07:11:43;8.67;;;7.73;;
2320;SDS011;15376;48.540;9.268;2023-12-14T07:14:08;9.83;;;8.87;;
2320;SDS011;15376;48.540;9.268;2023-12-14T07:16:34;9.17;;;8.20;;
2320;SDS011;15376;48.540;9.268;2023-12-14T07:18:59;13.70;;;9.03;;
2320;SDS011;15376;48.540;9.268;2023-12-14T07:21:24;12.57;;;9.47;;
2320;SDS011;15376;48.540;9.268;2023-12-14T07:23:50;11.53;;;8.83;;
2320;SDS011;15376;48.540;9.268;2023-12-14T07:26:15;10.30;;;8.57;;
2320;SDS011;15376;48.540;9.268;2023-12-14T07:28:40;13.50;;;8.47;;
2320;SDS011;15376;48.540;9.268;2023-12-14T07:31:06;19.13;;;10.07;;
2320;SDS011;15376;48.540;9.268;2023-12-14T07:33:31;13.53;;;10.20;;
2320;SDS011;15376;48.540;9.268;2023-12-14T07:35:56;12.20;;;10.60;;
2320;SDS011;15376;48.540;9.268;2023-12-14T07:38:22;13.37;;;11.27;;
2320;SDS011;15376;48.540;9.268;2023-12-14T07:40:47;13.13;;;9.97;;
2320;SDS011;15376;48.540;9.268;2023-12-14T07:43:15;14.30;;;11.60;;
2320;SDS011;15376;48.540;9.268;2023-12-14T07:45:40;12.60;;;9.63;;
2320;SDS011;15376;48.540;9.268;2023-12-14T07:48:06;14.13;;;11.70;;
2320;SDS011;15376;48.540;9.268;2023-12-14T07:50:31;13.80;;;12.17;;
2320;SDS011;15376;48.540;9.268;2023-12-14T07:52:57;12.30;;;11.00;;
2320;SDS011;15376;48.540;9.268;2023-12-14T07:55:22;15.40;;;11.50;;
2320;SDS011;15376;48.540;9.268;2023-12-14T07:57:48;11.87;;;10.73;;
2320;SDS011;15376;48.540;9.268;2023-12-14T08:00:15;13.50;;;11.30;;
2320;SDS011;15376;48.540;9.268;2023-12-14T08:02:40;14.43;;;11.57;;
2320;SDS011;15376;48.540;9.268;2023-12-14T08:05:06;13.97;;;12.23;;
2320;SDS011;15376;48.540;9.268;2023-12-14T08:07:32;18.07;;;10.80;;
2320;SDS011;15376;48.540;9.268;2023-12-14T08:09:58;11.90;;;10.60;;
2320;SDS011;15376;48.540;9.268;2023-12-14T08:12:23;12.70;;;10.57;;
2320;SDS011;15376;48.540;9.268;2023-12-14T08:14:49;11.33;;;10.23;;
2320;SDS011;15376;48.540;9.268;2023-12-14T08:17:15;12.27;;;10.03;;
2320;SDS011;15376;48.540;9.268;2023-12-14T08:19:41;11.07;;;9.80;;
2320;SDS011;15376;48.540;9.268;2023-12-14T08:22:07;11.50;;;10.30;;
2320;SDS011;15376;48.540;9.268;2023-12-14T08:24:35;11.00;;;9.50;;
2320;SDS011;15376;48.540;9.268;2023-12-14T08:27:01;16.20;;;10.70;;
2320;SDS011;15376;48.540;9.268;2023-12-14T08:29:26;18.33;;;11.17;;
2320;SDS011;15376;48.540;9.268;2023-12-14T08:31:52;11.10;;;9.73;;
2320;SDS011;15376;48.540;9.268;2023-12-14T08:34:18;13.23;;;11.40;;
2320;SDS011;15376;48.540;9.268;2023-12-14T08:36:43;12.13;;;10.63;;
2320;SDS011;15376;48.540;9.268;2023-12-14T08:39:09;10.40;;;9.30;;
2320;SDS011;15376;48.540;9.268;2023-12-14T08:41:34;11.53;;;10.30;;
2320;SDS011;15376;48.540;9.268;2023-12-14T08:43:59;13.03;;;10.50;;
2320;SDS011;15376;48.540;9.268;2023-12-14T08:46:25;9.70;;;8.70;;
2320;SDS011;15376;48.540;9.268;2023-12-14T08:48:50;11.43;;;10.33;;
2320;SDS011;15376;48.540;9.268;2023-12-14T08:51:16;9.87;;;8.93;;
2320;SDS011;15376;48.540;9.268;2023-12-14T08:53:44;11.27;;;9.13;;
2320;SDS011;15376;48.540;9.268;2023-12-14T08:56:09;11.50;;;9.80;;
2320;SDS011;15376;48.540;9.268;2023-12-14T08:58:35;9.77;;;8.83;;
2320;SDS011;15376;48.540;9.268;2023-12-14T09:01:00;9.37;;;8.47;;
2320;SDS011;15376;48.540;9.268;2023-12-14T09:03:26;9.40;;;8.50;;
2320;SDS011;15376;48.540;9.268;2023-12-14T09:05:51;14.53;;;11.17;;
2320;SDS011;15376;48.540;9.268;2023-12-14T09:08:17;10.67;;;8.70;;
2320;SDS011;15376;48.540;9.268;2023-12-14T09:10:42;10.80;;;9.70;;
2320;SDS011;15376;48.540;9.268;2023-12-14T09:13:08;11.60;;;9.43;;
2320;SDS011;15376;48.540;9.268;2023-12-14T09:15:33;10.67;;;8.40;;
2320;SDS011;15376;48.540;9.268;2023-12-14T09:17:59;12.13;;;8.00;;
2320;SDS011;15376;48.540;9.268;2023-12-14T09:20:25;7.37;;;6.67;;
2320;SDS011;15376;48.540;9.268;2023-12-14T09:22:50;10.67;;;7.60;;
2320;SDS011;15376;48.540;9.268;2023-12-14T09:25:16;8.60;;;7.80;;
2320;SDS011;15376;48.540;9.268;2023-12-14T09:27:41;8.87;;;7.23;;
2320;SDS011;15376;48.540;9.268;2023-12-14T09:30:07;8.43;;;7.70;;
2320;SDS011;15376;48.540;9.268;2023-12-14T09:32:33;8.10;;;6.40;;
2320;SDS011;15376;48.540;9.268;2023-12-14T09:34:59;7.17;;;6.47;;
2320;SDS011;15376;48.540;9.268;2023-12-14T09:37:24;7.23;;;5.80;;
2320;SDS011;15376;48.540;9.268;2023-12-14T09:39:50;6.87;;;6.23;;
2320;SDS011;15376;48.540;9.268;2023-12-14T09:42:16;11.10;;;9.20;;
2320;SDS011;15376;48.540;9.268;2023-12-14T09:44:45;6.80;;;6.20;;
2320;SDS011;15376;48.540;9.268;2023-12-14T09:47:11;7.63;;;6.87;;
2320;SDS011;15376;48.540;9.268;2023-12-14T09:49:37;7.57;;;6.17;;
2320;SDS011;15376;48.540;9.268;2023-12-14T09:52:06;6.40;;;5.80;;
2320;SDS011;15376;48.540;9.268;2023-12-14T09:54:31;4.80;;;4.40;;
2320;SDS011;15376;48.540;9.268;2023-12-14T09:56:56;5.93;;;5.43;;
2320;SDS011;15376;48.540;9.268;2023-12-14T09:59:22;6.10;;;5.20;;
2320;SDS011;15376;48.540;9.268;2023-12-14T10:01:47;7.40;;;5.23;;
2320;SDS011;15376;48.540;9.268;2023-12-14T10:04:13;4.00;;;3.70;;
2320;SDS011;15376;48.540;9.268;2023-12-14T10:06:41;5.30;;;4.87;;
2320;SDS011;15376;48.540;9.268;2023-12-14T10:09:07;4.53;;;4.13;;
2320;SDS011;15376;48.540;9.268;2023-12-14T10:11:42;4.77;;;4.37;;
2320;SDS011;15376;48.540;9.268;2023-12-14T10:16:47;5.50;;;5.03;;
2320;SDS011;15376;48.540;9.268;2023-12-14T10:19:14;5.63;;;5.13;;
2320;SDS011;15376;48.540;9.268;2023-12-14T10:21:39;8.67;;;6.10;;
2320;SDS011;15376;48.540;9.268;2023-12-14T10:24:05;5.57;;;5.00;;
2320;SDS011;15376;48.540;9.268;2023-12-14T10:26:31;6.80;;;6.00;;
2320;SDS011;15376;48.540;9.268;2023-12-14T10:28:56;6.23;;;5.30;;
2320;SDS011;15376;48.540;9.268;2023-12-14T10:31:22;5.70;;;5.20;;
2320;SDS011;15376;48.540;9.268;2023-12-14T10:33:50;5.50;;;5.00;;
2320;SDS011;15376;48.540;9.268;2023-12-14T10:36:18;5.70;;;5.13;;
2320;SDS011;15376;48.540;9.268;2023-12-14T10:38:49;5.27;;;4.77;;
2320;SDS011;15376;48.540;9.268;2023-12-14T10:41:18;4.80;;;4.37;;
2320;SDS011;15376;48.540;9.268;2023-12-14T10:43:46;5.10;;;4.60;;
2320;SDS011;15376;48.540;9.268;2023-12-14T10:46:13;6.30;;;5.70;;
2320;SDS011;15376;48.540;9.268;2023-12-14T10:48:39;5.00;;;4.60;;
2320;SDS011;15376;48.540;9.268;2023-12-14T10:51:07;5.37;;;4.00;;
2320;SDS011;15376;48.540;9.268;2023-12-14T10:53:34;4.60;;;4.20;;
2320;SDS011;15376;48.540;9.268;2023-12-14T10:56:01;5.80;;;4.37;;
2320;SDS011;15376;48.540;9.268;2023-12-14T10:58:48;6.43;;;4.50;;
2320;SDS011;15376;48.540;9.268;2023-12-14T11:01:17;47.30;;;33.07;;
2320;SDS011;15376;48.540;9.268;2023-12-14T11:03:44;11.00;;;8.20;;
2320;SDS011;15376;48.540;9.268;2023-12-14T11:08:57;20.70;;;16.43;;
2320;SDS011;15376;48.540;9.268;2023-12-14T11:11:27;7.30;;;6.60;;
2320;SDS011;15376;48.540;9.268;2023-12-14T11:13:53;7.00;;;5.93;;
2320;SDS011;15376;48.540;9.268;2023-12-14T11:16:23;6.47;;;5.97;;
2320;SDS011;15376;48.540;9.268;2023-12-14T11:19:23;5.73;;;5.23;;
2320;SDS011;15376;48.540;9.268;2023-12-14T11:21:59;5.67;;;5.10;;
2320;SDS011;15376;48.540;9.268;2023-12-14T11:24:35;5.87;;;5.13;;
2320;SDS011;15376;48.540;9.268;2023-12-14T11:27:06;5.47;;;5.07;;
2320;SDS011;15376;48.540;9.268;2023-12-14T11:29:32;6.20;;;5.60;;
2320;SDS011;15376;48.540;9.268;2023-12-14T11:31:58;6.87;;;5.50;;
2320;SDS011;15376;48.540;9.268;2023-12-14T11:34:26;5.57;;;5.10;;
2320;SDS011;15376;48.540;9.268;2023-12-14T11:36:52;5.53;;;5.03;;
2320;SDS011;15376;48.540;9.268;2023-12-14T11:39:19;6.83;;;5.50;;
2320;SDS011;15376;48.540;9.268;2023-12-14T11:42:02;8.87;;;6.60;;
2320;SDS011;15376;48.540;9.268;2023-12-14T11:44:28;5.20;;;4.80;;
2320;SDS011;15376;48.540;9.268;2023-12-14T11:46:55;4.73;;;4.33;;
2320;SDS011;15376;48.540;9.268;2023-12-14T11:49:21;4.43;;;4.10;;
2320;SDS011;15376;48.540;9.268;2023-12-14T11:51:46;4.60;;;4.10;;
2320;SDS011;15376;48.540;9.268;2023-12-14T11:54:12;4.73;;;4.20;;
2320;SDS011;15376;48.540;9.268;2023-12-14T11:56:38;5.23;;;4.23;;
2320;SDS011;15376;48.540;9.268;2023-12-14T11:59:04;5.10;;;3.70;;
2320;SDS011;15376;48.540;9.268;2023-12-14T12:01:29;4.57;;;4.17;;
2320;SDS011;15376;48.540;9.268;2023-12-14T12:03:56;6.63;;;4.10;;
2320;SDS011;15376;48.540;9.268;2023-12-14T12:08:52;3.63;;;3.33;;
2320;SDS011;15376;48.540;9.268;2023-12-14T12:11:19;4.30;;;3.90;;
2320;SDS011;15376;48.540;9.268;2023-12-14T12:16:18;4.10;;;3.70;;
2320;SDS011;15376;48.540;9.268;2023-12-14T12:18:44;3.50;;;3.20;;
2320;SDS011;15376;48.540;9.268;2023-12-14T12:21:11;2.83;;;2.63;;
2320;SDS011;15376;48.540;9.268;2023-12-14T12:23:36;6.57;;;3.50;;
2320;SDS011;15376;48.540;9.268;2023-12-14T12:26:02;3.80;;;3.10;;
2320;SDS011;15376;48.540;9.268;2023-12-14T12:28:27;3.40;;;3.10;;
2320;SDS011;15376;48.540;9.268;2023-12-14T12:30:55;3.33;;;3.00;;
2320;SDS011;15376;48.540;9.268;2023-12-14T12:33:20;7.33;;;4.60;;
2320;SDS011;15376;48.540;9.268;2023-12-14T12:35:46;4.07;;;3.17;;
2320;SDS011;15376;48.540;9.268;2023-12-14T12:38:11;4.60;;;3.43;;
2320;SDS011;15376;48.540;9.268;2023-12-14T12:40:37;3.97;;;3.00;;
2320;SDS011;15376;48.540;9.268;2023-12-14T12:43:02;3.00;;;2.80;;
2320;SDS011;15376;48.540;9.268;2023-12-14T12:45:28;3.30;;;3.00;;
2320;SDS011;15376;48.540;9.268;2023-12-14T12:47:54;4.00;;;3.40;;
2320;SDS011;15376;48.540;9.268;2023-12-14T12:50:19;3.83;;;3.53;;
2320;SDS011;15376;48.540;9.268;2023-12-14T12:52:47;6.10;;;4.07;;
2320;SDS011;15376;48.540;9.268;2023-12-14T12:55:14;4.53;;;3.77;;
2320;SDS011;15376;48.540;9.268;2023-12-14T12:57:40;5.33;;;3.90;;
2320;SDS011;15376;48.540;9.268;2023-12-14T13:00:07;4.90;;;4.03;;
2320;SDS011;15376;48.540;9.268;2023-12-14T13:02:36;7.80;;;3.77;;
2320;SDS011;15376;48.540;9.268;2023-12-14T13:05:08;4.70;;;3.93;;
2320;SDS011;15376;48.540;9.268;2023-12-14T13:07:35;3.37;;;3.10;;
2320;SDS011;15376;48.540;9.268;2023-12-14T13:10:04;4.10;;;2.70;;
2320;SDS011;15376;48.540;9.268;2023-12-14T13:12:34;3.80;;;3.40;;
2320;SDS011;15376;48.540;9.268;2023-12-14T13:14:59;2.50;;;2.30;;
2320;SDS011;15376;48.540;9.268;2023-12-14T13:17:25;2.80;;;2.60;;
2320;SDS011;15376;48.540;9.268;2023-12-14T13:19:51;3.97;;;2.90;;
2320;SDS011;15376;48.540;9.268;2023-12-14T13:22:16;3.50;;;3.20;;
2320;SDS011;15376;48.540;9.268;2023-12-14T13:24:42;3.57;;;2.70;;
2320;SDS011;15376;48.540;9.268;2023-12-14T13:27:07;3.30;;;2.37;;
2320;SDS011;15376;48.540;9.268;2023-12-14T13:29:32;3.87;;;2.67;;
2320;SDS011;15376;48.540;9.268;2023-12-14T13:31:59;3.37;;;2.90;;
2320;SDS011;15376;48.540;9.268;2023-12-14T13:34:25;2.67;;;2.47;;
2320;SDS011;15376;48.540;9.268;2023-12-14T13:36:51;3.70;;;2.93;;
2320;SDS011;15376;48.540;9.268;2023-12-14T13:39:16;2.47;;;2.27;;
2320;SDS011;15376;48.540;9.268;2023-12-14T13:41:42;2.77;;;2.57;;
2320;SDS011;15376;48.540;9.268;2023-12-14T13:44:07;5.53;;;2.90;;
2320;SDS011;15376;48.540;9.268;2023-12-14T13:46:33;3.50;;;3.20;;
2320;SDS011;15376;48.540;9.268;2023-12-14T13:48:58;2.60;;;2.40;;
2320;SDS011;15376;48.540;9.268;2023-12-14T13:51:24;3.10;;;2.90;;
2320;SDS011;15376;48.540;9.268;2023-12-14T13:53:49;3.70;;;2.90;;
2320;SDS011;15376;48.540;9.268;2023-12-14T13:56:14;3.20;;;3.00;;
2320;SDS011;15376;48.540;9.268;2023-12-14T13:58:40;4.00;;;3.70;;
2320;SDS011;15376;48.540;9.268;2023-12-14T14:01:05;3.60;;;3.30;;
2320;SDS011;15376;48.540;9.268;2023-12-14T14:03:34;4.20;;;3.80;;
2320;SDS011;15376;48.540;9.268;2023-12-14T14:06:00;5.40;;;3.40;;
2320;SDS011;15376;48.540;9.268;2023-12-14T14:08:27;3.07;;;2.87;;
2320;SDS011;15376;48.540;9.268;2023-12-14T14:10:52;3.70;;;3.40;;
2320;SDS011;15376;48.540;9.268;2023-12-14T14:13:17;6.90;;;4.10;;
2320;SDS011;15376;48.540;9.268;2023-12-14T14:15:43;4.17;;;3.17;;
2320;SDS011;15376;48.540;9.268;2023-12-14T14:18:08;4.40;;;4.10;;
2320;SDS011;15376;48.540;9.268;2023-12-14T14:20:34;5.50;;;4.03;;
2320;SDS011;15376;48.540;9.268;2023-12-14T14:23:00;6.40;;;4.70;;
2320;SDS011;15376;48.540;9.268;2023-12-14T14:25:25;6.37;;;5.60;;
2320;SDS011;15376;48.540;9.268;2023-12-14T14:27:51;5.60;;;4.37;;
2320;SDS011;15376;48.540;9.268;2023-12-14T14:30:16;4.10;;;3.80;;
2320;SDS011;15376;48.540;9.268;2023-12-14T14:32:42;3.73;;;3.43;;
2320;SDS011;15376;48.540;9.268;2023-12-14T14:35:07;4.30;;;3.90;;
2320;SDS011;15376;48.540;9.268;2023-12-14T14:37:33;3.27;;;2.97;;
2320;SDS011;15376;48.540;9.268;2023-12-14T14:39:58;3.70;;;3.40;;
2320;SDS011;15376;48.540;9.268;2023-12-14T14:42:24;3.17;;;2.87;;
2320;SDS011;15376;48.540;9.268;2023-12-14T14:44:49;3.47;;;3.13;;
2320;SDS011;15376;48.540;9.268;2023-12-14T14:47:15;3.77;;;3.23;;
2320;SDS011;15376;48.540;9.268;2023-12-14T14:49:40;2.90;;;2.70;;
2320;SDS011;15376;48.540;9.268;2023-12-14T14:52:06;4.33;;;3.47;;
2320;SDS011;15376;48.540;9.268;2023-12-14T14:54:31;4.50;;;4.10;;
2320;SDS011;15376;48.540;9.268;2023-12-14T14:56:56;4.13;;;3.67;;
2320;SDS011;15376;48.540;9.268;2023-12-14T14:59:22;4.00;;;3.60;;
2320;SDS011;15376;48.540;9.268;2023-12-14T15:01:47;8.40;;;3.97;;
2320;SDS011;15376;48.540;9.268;2023-12-14T15:04:13;5.67;;;3.70;;